Time;durP1;ratioP1;P1;durP2;ratioP2;P2;SDS_P1;SDS_P2;PMS_P1;PMS_P2;Temp;Humidity;BMP_temperature;BMP_pressure;BME280_temperature;BME280_humidity;BME280_pressure;Samples;Min_cycle;Max_cycle;Signal;HPM_P1;HPM_P2
2023/03/28 00:01:50;;;;;;;;;;;;;;;21.62;58.96;99502.88;7315944;19;129178;-40
2023/03/28 00:04:16;;;;;;;;;;;;;;;21.60;57.86;99508.25;7315230;19;131372;-41
2023/03/28 00:06:44;;;;;;;;;;;;;;;21.60;58.66;99512.69;7315887;19;131800;-41
2023/03/28 00:09:10;;;;;;;;;;;;;;;21.60;58.05;99510.88;7313807;19;129732;-41
2023/03/28 00:11:38;;;;;;;;;;;;;;;21.60;58.63;99513.47;7316570;19;129058;-41
2023/03/28 00:14:07;;;;;;;;;;;;;;;21.52;59.69;99499.44;7314187;19;129956;-41
2023/03/28 00:16:36;;;;;;;;;;;;;;;21.58;59.15;99510.19;7315397;19;129131;-41
2023/03/28 00:19:04;;;;;;;;;;;;;;;21.60;58.53;99513.47;7313993;19;129372;-41
2023/03/28 00:21:31;;;;;;;;;;;;;;;21.61;59.63;99515.16;7315585;19;129299;-40
2023/03/28 00:24:00;;;;;;;;;;;;;;;21.60;58.99;99516.09;7315348;19;129176;-41
2023/03/28 00:26:26;;;;;;;;;;;;;;;21.62;58.11;99522.03;7315725;19;128976;-41
2023/03/28 00:28:53;;;;;;;;;;;;;;;21.61;58.23;99515.16;7314288;19;129175;-41
2023/03/28 00:31:19;;;;;;;;;;;;;;;21.59;59.39;99511.84;7315696;19;130492;-40
2023/03/28 00:33:46;;;;;;;;;;;;;;;21.63;59.03;99517.63;7313622;19;131151;-40
2023/03/28 00:36:22;;;;;;;;;;;;;;;21.61;60.00;99515.16;7314160;19;128826;-41
2023/03/28 00:38:52;;;;;;;;;;;;;;;21.62;59.48;99510.72;7312734;19;129141;-40
2023/03/28 00:41:21;;;;;;;;;;;;;;;21.61;59.88;99499.44;7316374;19;130457;-41
2023/03/28 00:43:49;;;;;;;;;;;;;;;21.68;58.77;99499.69;7311485;19;129380;-40
2023/03/28 00:46:21;;;;;;;;;;;;;;;21.63;60.39;99492.28;7314317;19;128784;-41
2023/03/28 00:48:51;;;;;;;;;;;;;;;21.64;59.88;99499.16;7311296;19;129490;-41
2023/03/28 00:51:19;;;;;;;;;;;;;;;21.62;59.28;99501.09;7313087;19;130039;-40
2023/03/28 00:53:45;;;;;;;;;;;;;;;21.61;60.14;99502.06;7314684;19;128963;-40
2023/03/28 00:56:13;;;;;;;;;;;;;;;21.60;59.44;99508.25;7313913;19;129271;-42
2023/03/28 00:58:41;;;;;;;;;;;;;;;21.59;59.84;99517.06;7312560;19;129037;-40
2023/03/28 01:01:07;;;;;;;;;;;;;;;21.60;59.03;99515.28;7313474;19;129758;-42
2023/03/28 01:03:34;;;;;;;;;;;;;;;21.59;59.00;99506.59;7314158;19;128848;-41
2023/03/28 01:06:03;;;;;;;;;;;;;;;21.59;59.86;99509.22;7314672;19;129209;-42
2023/03/28 01:08:31;;;;;;;;;;;;;;;21.60;58.96;99523.94;7312360;19;129147;-40
2023/03/28 01:10:57;;;;;;;;;;;;;;;21.58;59.88;99515.44;7311839;19;129216;-39
2023/03/28 01:13:24;;;;;;;;;;;;;;;21.59;59.99;99511.84;7314529;19;129142;-39
2023/03/28 01:15:50;;;;;;;;;;;;;;;21.59;59.57;99517.06;7312464;19;129384;-41
2023/03/28 01:18:17;;;;;;;;;;;;;;;21.56;58.04;99527.81;7312538;19;129294;-41
2023/03/28 01:20:54;;;;;;;;;;;;;;;21.53;59.14;99528.13;7311767;19;130131;-40
2023/03/28 01:23:19;;;;;;;;;;;;;;;21.53;58.86;99538.56;7315153;19;129183;-40
2023/03/28 01:26:09;;;;;;;;;;;;;;;21.56;60.56;99538.28;7313442;19;129240;-40
2023/03/28 01:28:35;;;;;;;;;;;;;;;21.55;58.72;99528.78;7312881;19;129582;-41
2023/03/28 01:31:12;;;;;;;;;;;;;;;21.56;58.66;99522.59;7312237;19;129210;-41
2023/03/28 01:33:43;;;;;;;;;;;;;;;21.51;59.74;99529.19;7312968;19;129163;-39
2023/03/28 01:36:18;;;;;;;;;;;;;;;21.45;58.58;99530.56;7314637;19;129316;-41
2023/03/28 01:38:53;;;;;;;;;;;;;;;21.47;58.85;99533.88;7311027;19;129474;-40
2023/03/28 01:41:24;;;;;;;;;;;;;;;21.43;58.44;99532.53;7314135;19;130178;-41
2023/03/28 01:43:56;;;;;;;;;;;;;;;21.50;58.79;99536.22;7313719;19;129147;-40
2023/03/28 01:46:30;;;;;;;;;;;;;;;21.48;59.07;99538.16;7312397;19;129470;-41
2023/03/28 01:49:01;;;;;;;;;;;;;;;21.45;59.40;99535.81;7311394;19;129208;-40
2023/03/28 01:51:36;;;;;;;;;;;;;;;21.42;58.84;99546.56;7312788;19;129154;-40
2023/03/28 01:54:11;;;;;;;;;;;;;;;21.40;59.37;99545.88;7314766;19;129592;-41
2023/03/28 01:56:45;;;;;;;;;;;;;;;21.39;59.67;99551.22;7312329;19;129617;-40
2023/03/28 01:59:35;;;;;;;;;;;;;;;21.37;58.90;99551.38;7313135;19;129584;-41
2023/03/28 02:02:28;;;;;;;;;;;;;;;21.23;59.64;99540.53;7310598;19;129747;-40
2023/03/28 02:04:56;;;;;;;;;;;;;;;21.25;60.04;99544.66;7312039;19;129076;-40
2023/03/28 02:07:23;;;;;;;;;;;;;;;21.38;60.73;99550.44;7311198;19;131208;-41
2023/03/28 02:09:51;;;;;;;;;;;;;;;21.37;60.25;99556.59;7310754;19;129409;-39
2023/03/28 02:12:23;;;;;;;;;;;;;;;21.32;59.74;99556.19;7311744;19;129672;-41
2023/03/28 02:14:53;;;;;;;;;;;;;;;21.36;60.19;99564.59;7310808;19;129420;-41
2023/03/28 02:17:20;;;;;;;;;;;;;;;21.37;60.27;99564.44;7318756;19;129098;-41
2023/03/28 02:19:51;;;;;;;;;;;;;;;21.34;60.09;99566.50;7319893;19;129318;-40
2023/03/28 02:22:26;;;;;;;;;;;;;;;21.33;59.99;99563.09;7317217;19;130259;-41
2023/03/28 02:24:51;;;;;;;;;;;;;;;21.32;59.63;99558.81;7319055;19;128886;-41
2023/03/28 02:27:18;;;;;;;;;;;;;;;21.31;59.97;99559.78;7320184;19;129144;-40
2023/03/28 02:29:44;;;;;;;;;;;;;;;21.27;60.35;99561.00;7319007;19;129423;-42
2023/03/28 02:32:10;;;;;;;;;;;;;;;21.18;60.31;99538.31;7318778;19;129973;-42
2023/03/28 02:34:35;;;;;;;;;;;;;;;21.26;59.88;99567.22;7318660;19;129092;-41
2023/03/28 02:37:13;;;;;;;;;;;;;;;21.28;58.96;99574.94;7316717;19;129207;-40
2023/03/28 02:39:38;;;;;;;;;;;;;;;21.26;59.86;99582.91;7318714;19;129676;-42
2023/03/28 02:42:24;;;;;;;;;;;;;;;21.25;61.33;99575.22;7319162;19;129552;-42
2023/03/28 02:45:08;;;;;;;;;;;;;;;21.26;59.66;99571.63;7318450;19;128791;-42
2023/03/28 02:47:51;;;;;;;;;;;;;;;21.24;60.31;99579.59;7317783;19;128800;-41
2023/03/28 02:50:33;;;;;;;;;;;;;;;21.23;60.92;99580.56;7317661;19;129715;-41
2023/03/28 02:53:06;;;;;;;;;;;;;;;21.11;60.08;99558.13;7316569;19;129642;-42
2023/03/28 02:55:38;;;;;;;;;;;;;;;21.23;60.50;99577.97;7318792;19;129765;-41
2023/03/28 02:58:15;;;;;;;;;;;;;;;21.24;60.43;99571.75;7317296;19;129162;-41
2023/03/28 03:00:40;;;;;;;;;;;;;;;21.22;61.00;99568.44;7318576;19;130243;-42
2023/03/28 03:03:09;;;;;;;;;;;;;;;21.20;60.03;99591.31;7318495;19;129184;-41
2023/03/28 03:05:37;;;;;;;;;;;;;;;21.26;60.42;99577.69;7317873;19;129110;-40
2023/03/28 03:08:02;;;;;;;;;;;;;;;21.25;61.07;99580.44;7317556;19;130038;-41
2023/03/28 03:10:28;;;;;;;;;;;;;;;21.24;61.00;99589.22;7316652;19;128960;-41
2023/03/28 03:12:53;;;;;;;;;;;;;;;21.22;61.35;99578.09;7318737;19;129754;-42
2023/03/28 03:15:19;;;;;;;;;;;;;;;21.08;59.95;99561.03;7317745;19;130352;-40
2023/03/28 03:17:44;;;;;;;;;;;;;;;21.20;60.65;99578.25;7317228;19;129765;-41
2023/03/28 03:20:10;;;;;;;;;;;;;;;21.19;61.33;99584.41;7318549;19;129368;-42
2023/03/28 03:22:35;;;;;;;;;;;;;;;21.24;60.71;99589.22;7318083;19;129577;-40
2023/03/28 03:25:05;;;;;;;;;;;;;;;21.24;61.00;99592.69;7316699;19;128951;-40
2023/03/28 03:27:31;;;;;;;;;;;;;;;21.21;60.74;99587.72;7315434;19;128674;-41
2023/03/28 03:29:57;;;;;;;;;;;;;;;21.14;60.63;99584.00;7315413;19;129000;-40
2023/03/28 03:32:22;;;;;;;;;;;;;;;21.26;61.13;99600.38;7318423;19;129683;-41
2023/03/28 03:34:48;;;;;;;;;;;;;;;21.28;58.75;99606.31;7316274;19;129193;-41
2023/03/28 03:37:16;;;;;;;;;;;;;;;21.29;59.79;99603.53;7316888;19;128922;-41
2023/03/28 03:39:42;;;;;;;;;;;;;;;21.37;59.21;99605.50;7316274;19;129980;-40
2023/03/28 03:42:08;;;;;;;;;;;;;;;21.86;58.18;99603.53;7317240;19;129530;-42
2023/03/28 03:44:33;;;;;;;;;;;;;;;22.38;56.30;99603.94;7316166;19;129731;-41
2023/03/28 03:46:59;;;;;;;;;;;;;;;22.73;54.71;99620.59;7317138;19;129424;-41
2023/03/28 03:49:24;;;;;;;;;;;;;;;23.02;53.63;99615.19;7316795;19;129213;-41
2023/03/28 03:51:50;;;;;;;;;;;;;;;23.18;53.60;99599.59;7316291;19;130013;-41
2023/03/28 03:54:15;;;;;;;;;;;;;;;23.42;52.86;99633.16;7317361;19;128630;-40
2023/03/28 03:56:41;;;;;;;;;;;;;;;23.51;52.57;99635.69;7316593;19;128834;-40
2023/03/28 03:59:06;;;;;;;;;;;;;;;23.70;51.81;99648.63;7314392;19;129658;-41
2023/03/28 04:01:33;;;;;;;;;;;;;;;23.75;51.62;99641.13;7315600;19;131017;-41
2023/03/28 04:03:58;;;;;;;;;;;;;;;23.88;51.66;99657.31;7317626;19;128948;-41
2023/03/28 04:06:24;;;;;;;;;;;;;;;23.88;51.27;99657.31;7315279;19;129535;-40
2023/03/28 04:08:53;;;;;;;;;;;;;;;23.83;52.08;99666.63;7314023;19;129398;-41
2023/03/28 04:11:18;;;;;;;;;;;;;;;23.81;51.93;99661.53;7314718;19;129527;-40
2023/03/28 04:13:44;;;;;;;;;;;;;;;23.81;51.63;99676.47;7317088;19;129513;-40
2023/03/28 04:16:10;;;;;;;;;;;;;;;23.79;52.14;99662.66;7316186;19;128772;-41
2023/03/28 04:18:36;;;;;;;;;;;;;;;23.76;52.32;99669.06;7314384;19;130089;-41
2023/03/28 04:21:01;;;;;;;;;;;;;;;23.59;52.27;99661.16;7316034;19;129278;-41
2023/03/28 04:23:27;;;;;;;;;;;;;;;23.70;52.18;99682.75;7315191;19;132182;-40
2023/03/28 04:25:56;;;;;;;;;;;;;;;23.80;51.83;99691.38;7309983;19;130248;-40
2023/03/28 04:28:26;;;;;;;;;;;;;;;23.85;51.95;99686.50;7312009;19;129416;-40
2023/03/28 04:30:57;;;;;;;;;;;;;;;23.89;51.31;99695.75;7313313;19;129188;-41
2023/03/28 04:33:32;;;;;;;;;;;;;;;23.97;51.20;99702.84;7315118;19;129801;-40
2023/03/28 04:36:04;;;;;;;;;;;;;;;23.96;51.76;99702.03;7313699;19;129318;-41
2023/03/28 04:38:34;;;;;;;;;;;;;;;23.96;51.08;99688.91;7312543;19;129500;-40
2023/03/28 04:41:00;;;;;;;;;;;;;;;24.08;51.20;99710.53;7309745;19;130144;-40
2023/03/28 04:43:26;;;;;;;;;;;;;;;24.08;51.19;99711.34;7312062;19;130535;-40
2023/03/28 04:45:52;;;;;;;;;;;;;;;24.16;51.04;99723.72;7313010;19;129179;-40
2023/03/28 04:48:17;;;;;;;;;;;;;;;24.20;50.89;99720.63;7310742;19;129717;-39
2023/03/28 04:50:43;;;;;;;;;;;;;;;24.22;50.80;99736.25;7313427;19;130188;-41
2023/03/28 04:53:09;;;;;;;;;;;;;;;24.22;50.78;99739.69;7315515;19;129045;-41
2023/03/28 04:55:34;;;;;;;;;;;;;;;24.18;50.75;99740.97;7314563;19;131309;-41
2023/03/28 04:58:00;;;;;;;;;;;;;;;24.12;51.07;99746.84;7313998;19;129514;-40
2023/03/28 05:00:26;;;;;;;;;;;;;;;24.04;51.15;99746.78;7315026;19;129288;-40
2023/03/28 05:02:55;;;;;;;;;;;;;;;23.89;51.90;99757.94;7315165;19;130497;-41
2023/03/28 05:05:20;;;;;;;;;;;;;;;23.74;52.32;99755.00;7311325;19;129282;-42
2023/03/28 05:07:46;;;;;;;;;;;;;;;23.51;52.14;99739.84;7313246;19;129552;-40
2023/03/28 05:10:11;;;;;;;;;;;;;;;23.51;52.47;99761.66;7309234;19;129519;-41
2023/03/28 05:12:37;;;;;;;;;;;;;;;23.44;52.76;99772.88;7313115;19;129159;-41
2023/03/28 05:15:04;;;;;;;;;;;;;;;23.38;52.84;99774.31;7311509;19;129025;-40
2023/03/28 05:17:29;;;;;;;;;;;;;;;23.36;52.77;99781.50;7313658;19;129505;-41
2023/03/28 05:19:55;;;;;;;;;;;;;;;23.44;53.35;99778.97;7313195;19;129170;-41
2023/03/28 05:22:21;;;;;;;;;;;;;;;23.50;52.75;99788.88;7314421;19;129562;-40
2023/03/28 05:24:46;;;;;;;;;;;;;;;23.54;52.62;99795.47;7306580;19;129519;-40
2023/03/28 05:27:12;;;;;;;;;;;;;;;23.60;52.99;99794.88;7313560;19;128946;-41
2023/03/28 05:29:38;;;;;;;;;;;;;;;23.73;52.33;99792.75;7313759;19;129482;-41
2023/03/28 05:32:04;;;;;;;;;;;;;;;23.79;51.82;99799.19;7314171;19;129037;-40
2023/03/28 05:34:29;;;;;;;;;;;;;;;23.90;51.98;99807.66;7308615;19;130221;-41
2023/03/28 05:36:58;;;;;;;;;;;;;;;23.90;52.24;99807.66;7312014;19;129410;-40
2023/03/28 05:39:24;;;;;;;;;;;;;;;24.02;51.63;99818.81;7311088;19;129797;-42
2023/03/28 05:41:49;;;;;;;;;;;;;;;24.04;51.17;99809.81;7312829;19;129217;-41
2023/03/28 05:44:17;;;;;;;;;;;;;;;24.03;51.33;99802.91;7313882;19;128939;-39
2023/03/28 05:46:43;;;;;;;;;;;;;;;24.17;51.15;99828.66;7312196;19;131411;-42
2023/03/28 05:49:11;;;;;;;;;;;;;;;24.17;50.83;99828.66;7308404;19;129197;-41
2023/03/28 05:51:36;;;;;;;;;;;;;;;24.10;51.66;99842.53;7309507;19;131174;-41
2023/03/28 05:54:02;;;;;;;;;;;;;;;23.97;51.51;99837.63;7314690;19;129352;-41
2023/03/28 05:56:27;;;;;;;;;;;;;;;23.87;51.77;99842.09;7312487;19;129098;-39
2023/03/28 05:58:53;;;;;;;;;;;;;;;23.77;51.89;99849.22;7311559;19;129595;-42
2023/03/28 06:01:22;;;;;;;;;;;;;;;23.65;52.47;99853.00;7311888;19;131071;-41
2023/03/28 06:03:48;;;;;;;;;;;;;;;23.53;53.18;99856.81;7314754;19;129628;-41
2023/03/28 06:06:20;;;;;;;;;;;;;;;23.46;53.13;99866.25;7312469;19;130900;-40
2023/03/28 06:08:45;;;;;;;;;;;;;;;23.44;53.01;99865.56;7308858;19;129700;-41
2023/03/28 06:11:11;;;;;;;;;;;;;;;23.42;53.11;99864.88;7307721;19;128834;-40
2023/03/28 06:13:37;;;;;;;;;;;;;;;23.53;52.67;99867.31;7309549;19;129206;-42
2023/03/28 06:16:02;;;;;;;;;;;;;;;23.44;52.90;99857.69;7309579;19;130803;-40
2023/03/28 06:18:28;;;;;;;;;;;;;;;23.62;52.71;99882.19;7309747;19;129643;-40
2023/03/28 06:20:54;;;;;;;;;;;;;;;23.67;52.34;99877.31;7311169;19;129617;-41
2023/03/28 06:23:22;;;;;;;;;;;;;;;23.79;52.47;99888.44;7313832;19;128802;-40
2023/03/28 06:25:47;;;;;;;;;;;;;;;23.87;52.08;99893.78;7311978;19;129115;-39
2023/03/28 06:28:13;;;;;;;;;;;;;;;23.95;52.11;99905.22;7309191;19;130269;-40
2023/03/28 06:30:41;;;;;;;;;;;;;;;24.05;51.54;99892.88;7307790;19;130543;-39
2023/03/28 06:33:06;;;;;;;;;;;;;;;24.15;51.55;99912.03;7312045;19;129488;-40
2023/03/28 06:35:32;;;;;;;;;;;;;;;24.17;50.71;99904.00;7311485;19;129815;-40
2023/03/28 06:37:58;;;;;;;;;;;;;;;24.26;50.73;99911.00;7310609;19;129126;-39
2023/03/28 06:40:23;;;;;;;;;;;;;;;24.24;50.79;99911.16;7313261;19;129110;-40
2023/03/28 06:42:49;;;;;;;;;;;;;;;24.19;51.50;99921.28;7311441;19;130486;-39
2023/03/28 06:45:14;;;;;;;;;;;;;;;24.17;51.13;99920.59;7310995;19;129204;-39
2023/03/28 06:47:39;;;;;;;;;;;;;;;23.96;51.14;99908.69;7311179;19;129158;-39
2023/03/28 06:50:05;;;;;;;;;;;;;;;23.94;51.47;99924.59;7311965;19;128894;-39
2023/03/28 06:52:30;;;;;;;;;;;;;;;23.84;52.26;99934.31;7311127;19;130768;-40
2023/03/28 06:54:55;;;;;;;;;;;;;;;23.71;52.46;99944.31;7311896;19;129349;-39
2023/03/28 06:57:21;;;;;;;;;;;;;;;23.58;52.78;99941.22;7311488;19;129623;-39
2023/03/28 06:59:46;;;;;;;;;;;;;;;23.53;52.90;99943.44;7312707;19;128909;-39
2023/03/28 07:02:11;;;;;;;;;;;;;;;23.49;52.69;99939.44;7316025;19;128847;-39
2023/03/28 07:04:36;;;;;;;;;;;;;;;23.56;53.11;99951.00;7317675;19;129482;-39
2023/03/28 07:07:02;;;;;;;;;;;;;;;23.62;53.07;99949.63;7318584;19;129229;-39
2023/03/28 07:09:27;;;;;;;;;;;;;;;23.55;52.94;99938.84;7319901;19;129264;-39
2023/03/28 07:11:52;;;;;;;;;;;;;;;23.76;52.49;99957.84;7314603;19;129130;-39
2023/03/28 07:14:18;;;;;;;;;;;;;;;23.83;52.22;99958.91;7317990;19;130575;-39
2023/03/28 07:16:43;;;;;;;;;;;;;;;23.93;52.31;99964.94;7318493;19;129081;-40
2023/03/28 07:19:08;;;;;;;;;;;;;;;23.91;51.58;99956.41;7316620;19;129197;-39
2023/03/28 07:21:33;;;;;;;;;;;;;;;24.11;51.64;99972.91;7318229;19;129137;-39
2023/03/28 07:23:59;;;;;;;;;;;;;;;24.14;51.35;99968.19;7318326;19;129865;-39
2023/03/28 07:26:26;;;;;;;;;;;;;;;24.22;50.96;99991.94;7316598;19;129566;-40
2023/03/28 07:28:52;;;;;;;;;;;;;;;24.23;51.25;99983.06;7315245;19;128901;-39
2023/03/28 07:31:19;;;;;;;;;;;;;;;24.35;50.94;99989.78;7315051;19;129018;-39
2023/03/28 07:33:45;;;;;;;;;;;;;;;24.31;51.44;99987.59;7316507;19;129203;-40
2023/03/28 07:36:18;;;;;;;;;;;;;;;24.28;51.04;99995.75;7317121;19;129619;-39
2023/03/28 07:38:43;;;;;;;;;;;;;;;24.19;51.17;99997.47;7316110;19;128850;-40
2023/03/28 07:41:08;;;;;;;;;;;;;;;24.10;51.38;99997.50;7316785;19;129234;-39
2023/03/28 07:43:34;;;;;;;;;;;;;;;23.95;51.57;99998.94;7317381;19;129131;-39
2023/03/28 07:46:05;;;;;;;;;;;;;;;23.87;52.04;100006.72;7315244;19;129258;-39
2023/03/28 07:48:30;;;;;;;;;;;;;;;23.74;52.76;100001.78;7313431;19;128837;-40
2023/03/28 07:50:56;;;;;;;;;;;;;;;23.63;52.58;100004.59;7316218;19;128765;-39
2023/03/28 07:53:21;;;;;;;;;;;;;;;23.54;52.96;100005.44;7317216;19;129187;-40
2023/03/28 07:55:47;;;;;;;;;;;;;;;23.53;52.87;100019.53;7315427;19;129911;-39
2023/03/28 07:58:12;;;;;;;;;;;;;;;23.58;53.04;100017.31;7316208;19;128790;-39
2023/03/28 08:00:37;;;;;;;;;;;;;;;23.63;52.42;100022.13;7316360;19;129450;-39
2023/03/28 08:03:03;;;;;;;;;;;;;;;23.74;52.92;100011.47;7316355;19;129728;-39
2023/03/28 08:05:28;;;;;;;;;;;;;;;23.81;52.75;100021.25;7316250;19;130151;-40
2023/03/28 08:07:53;;;;;;;;;;;;;;;23.86;52.01;100026.06;7314674;19;129225;-39
2023/03/28 08:10:19;;;;;;;;;;;;;;;24.00;51.85;100023.00;7315255;19;129535;-40
2023/03/28 08:12:44;;;;;;;;;;;;;;;24.07;52.04;100026.69;7313750;19;129432;-39
2023/03/28 08:15:10;;;;;;;;;;;;;;;24.04;51.45;100009.44;7315863;19;129582;-40
2023/03/28 08:17:35;;;;;;;;;;;;;;;24.26;51.03;100027.44;7315581;19;128952;-39
2023/03/28 08:20:00;;;;;;;;;;;;;;;24.29;51.37;100045.56;7315871;19;132071;-40
2023/03/28 08:22:26;;;;;;;;;;;;;;;24.36;50.68;100040.53;7316859;19;129295;-40
2023/03/28 08:24:51;;;;;;;;;;;;;;;24.42;50.59;100046.03;7316458;19;129125;-41
2023/03/28 08:27:16;;;;;;;;;;;;;;;24.29;50.89;100040.31;7315883;19;128970;-40
2023/03/28 08:29:41;;;;;;;;;;;;;;;24.20;51.56;100046.41;7312539;19;130916;-40
2023/03/28 08:32:07;;;;;;;;;;;;;;;24.12;51.35;100051.56;7310809;19;129894;-40
2023/03/28 08:34:32;;;;;;;;;;;;;;;23.98;51.86;100052.03;7315262;19;130184;-40
2023/03/28 08:36:58;;;;;;;;;;;;;;;23.76;52.51;100028.75;7315807;19;128913;-40
2023/03/28 08:39:24;;;;;;;;;;;;;;;23.62;52.37;100034.44;7314788;19;129238;-40
2023/03/28 08:41:52;;;;;;;;;;;;;;;23.61;52.57;100059.03;7315731;19;129172;-40
2023/03/28 08:44:20;;;;;;;;;;;;;;;23.53;52.80;100060.69;7314835;19;129322;-40
2023/03/28 08:46:50;;;;;;;;;;;;;;;23.47;53.36;100062.09;7313277;19;128747;-40
2023/03/28 08:49:16;;;;;;;;;;;;;;;23.47;53.39;100061.28;7313127;19;128939;-40
2023/03/28 08:51:46;;;;;;;;;;;;;;;23.56;52.96;100061.25;7313498;19;129191;-41
2023/03/28 08:54:27;;;;;;;;;;;;;;;23.62;52.73;100071.19;7314850;19;130966;-40
2023/03/28 08:56:55;;;;;;;;;;;;;;;23.78;52.65;100060.09;7314092;19;129207;-40
2023/03/28 08:59:47;;;;;;;;;;;;;;;23.89;52.68;100068.63;7314411;19;129096;-40
2023/03/28 09:02:17;;;;;;;;;;;;;;;24.00;52.38;100073.75;7313774;19;129606;-39
2023/03/28 09:04:43;;;;;;;;;;;;;;;24.11;52.07;100067.50;7313503;19;129159;-40
2023/03/28 09:07:29;;;;;;;;;;;;;;;24.15;51.46;100085.44;7313825;19;129728;-39
2023/03/28 09:10:05;;;;;;;;;;;;;;;24.27;51.59;100072.94;7314240;19;128936;-40
2023/03/28 09:12:42;;;;;;;;;;;;;;;24.31;51.04;100087.47;7313551;19;132021;-39
2023/03/28 09:15:10;;;;;;;;;;;;;;;24.26;50.99;100093.13;7314089;19;129829;-39
2023/03/28 09:17:35;;;;;;;;;;;;;;;24.10;51.92;100098.19;7311662;19;128955;-39
2023/03/28 09:20:13;;;;;;;;;;;;;;;24.06;51.97;100096.81;7314941;19;129076;-39
2023/03/28 09:22:41;;;;;;;;;;;;;;;23.90;51.91;100091.28;7314484;19;132460;-39
2023/03/28 09:25:41;;;;;;;;;;;;;;;23.79;52.31;100101.97;7313879;19;129236;-39
2023/03/28 09:28:25;;;;;;;;;;;;;;;23.51;52.95;100081.84;7308243;19;129383;-40
2023/03/28 09:30:51;;;;;;;;;;;;;;;23.53;52.96;100098.28;7311606;19;129547;-39
2023/03/28 09:33:24;;;;;;;;;;;;;;;23.40;53.99;100103.00;7314098;19;129347;-39
2023/03/28 09:35:52;;;;;;;;;;;;;;;23.35;53.84;100102.56;7312648;19;129490;-39
2023/03/28 09:38:17;;;;;;;;;;;;;;;23.37;53.54;100107.69;7312480;19;128974;-39
2023/03/28 09:40:45;;;;;;;;;;;;;;;23.42;53.62;100095.78;7313424;19;129374;-39
2023/03/28 09:43:10;;;;;;;;;;;;;;;23.50;53.25;100106.44;7314257;19;129170;-40
2023/03/28 09:45:36;;;;;;;;;;;;;;;23.52;53.24;100085.31;7313402;19;130328;-40
2023/03/28 09:48:03;;;;;;;;;;;;;;;23.71;53.23;100107.09;7311915;19;129827;-40
2023/03/28 09:50:28;;;;;;;;;;;;;;;23.83;52.40;100100.69;7312462;19;129182;-39
2023/03/28 09:52:55;;;;;;;;;;;;;;;23.97;52.18;100102.88;7315133;19;129033;-40
2023/03/28 09:55:22;;;;;;;;;;;;;;;24.06;51.89;100109.13;7313468;19;129830;-39
2023/03/28 09:58:02;;;;;;;;;;;;;;;24.15;51.53;100116.97;7313272;19;129091;-40
2023/03/28 10:00:28;;;;;;;;;;;;;;;24.26;51.78;100114.16;7312681;19;128887;-40
2023/03/28 10:02:54;;;;;;;;;;;;;;;24.31;51.47;100111.91;7311151;19;131339;-40
2023/03/28 10:05:34;;;;;;;;;;;;;;;24.12;51.60;100106.75;7313205;19;129175;-40
2023/03/28 10:08:02;;;;;;;;;;;;;;;24.17;51.76;100122.91;7310216;19;129378;-40
2023/03/28 10:10:28;;;;;;;;;;;;;;;23.94;51.70;100105.81;7312860;19;128923;-40
2023/03/28 10:12:57;;;;;;;;;;;;;;;23.94;52.20;100123.34;7311818;19;129072;-40
2023/03/28 10:15:29;;;;;;;;;;;;;;;23.82;52.66;100114.81;7311894;19;129862;-40
2023/03/28 10:17:54;;;;;;;;;;;;;;;23.64;52.87;100124.38;7311724;19;129025;-40
2023/03/28 10:20:20;;;;;;;;;;;;;;;23.54;53.00;100133.22;7312821;19;129048;-40
2023/03/28 10:22:47;;;;;;;;;;;;;;;23.45;53.54;100124.41;7312357;19;129231;-38
2023/03/28 10:25:16;;;;;;;;;;;;;;;23.34;53.87;100128.97;7311583;19;129239;-40
2023/03/28 10:27:42;;;;;;;;;;;;;;;23.17;54.00;100112.88;7310921;19;129058;-40
2023/03/28 10:30:15;;;;;;;;;;;;;;;23.27;54.08;100128.66;7312627;19;129913;-40
2023/03/28 10:32:40;;;;;;;;;;;;;;;23.30;53.99;100117.06;7312979;19;131073;-40
2023/03/28 10:35:08;;;;;;;;;;;;;;;23.39;53.95;100140.69;7311814;19;129242;-40
2023/03/28 10:37:34;;;;;;;;;;;;;;;23.51;53.45;100125.63;7316053;19;129888;-39
2023/03/28 10:40:01;;;;;;;;;;;;;;;23.64;53.37;100128.78;7319292;19;128932;-40
2023/03/28 10:42:26;;;;;;;;;;;;;;;23.73;52.57;100123.53;7317660;19;129501;-40
2023/03/28 10:44:59;;;;;;;;;;;;;;;23.82;52.36;100130.56;7317883;19;129392;-40
2023/03/28 10:47:25;;;;;;;;;;;;;;;23.89;52.03;100109.81;7316218;19;129579;-40
2023/03/28 10:49:52;;;;;;;;;;;;;;;24.10;51.94;100121.81;7319421;19;129165;-39
2023/03/28 10:52:17;;;;;;;;;;;;;;;24.08;51.86;100131.63;7317064;19;129449;-39
2023/03/28 10:54:54;;;;;;;;;;;;;;;24.08;51.51;100131.63;7318477;19;129669;-39
2023/03/28 10:57:31;;;;;;;;;;;;;;;23.96;51.78;100122.25;7315383;19;129024;-39
2023/03/28 11:00:05;;;;;;;;;;;;;;;23.86;52.08;100126.69;7319401;19;129757;-39
2023/03/28 11:02:37;;;;;;;;;;;;;;;23.75;52.48;100129.47;7317436;19;129126;-39
2023/03/28 11:05:02;;;;;;;;;;;;;;;23.63;53.42;100129.75;7317884;19;129917;-40
2023/03/28 11:07:43;;;;;;;;;;;;;;;23.52;53.37;100135.97;7315663;19;129110;-39
2023/03/28 11:10:14;;;;;;;;;;;;;;;23.40;53.74;100149.38;7317445;19;129542;-39
2023/03/28 11:12:54;;;;;;;;;;;;;;;23.30;53.88;100138.91;7315632;19;131099;-40
2023/03/28 11:15:28;;;;;;;;;;;;;;;23.24;53.94;100144.63;7316602;19;130133;-39
2023/03/28 11:17:56;;;;;;;;;;;;;;;23.28;54.17;100145.22;7317149;19;130210;-39
2023/03/28 11:20:43;;;;;;;;;;;;;;;23.34;54.09;100140.25;7319026;19;129899;-40
2023/03/28 11:23:16;;;;;;;;;;;;;;;23.48;53.73;100137.25;7318510;19;129151;-39
2023/03/28 11:25:49;;;;;;;;;;;;;;;23.60;53.50;100141.34;7316897;19;129243;-39
2023/03/28 11:28:24;;;;;;;;;;;;;;;23.73;52.65;100134.03;7315652;19;128815;-40
2023/03/28 11:30:52;;;;;;;;;;;;;;;23.89;52.59;100136.06;7317480;19;129042;-39
2023/03/28 11:33:44;;;;;;;;;;;;;;;23.98;51.98;100130.81;7317849;19;130011;-39
2023/03/28 11:36:13;;;;;;;;;;;;;;;24.13;51.75;100132.03;7313639;19;130268;-40
2023/03/28 11:38:40;;;;;;;;;;;;;;;24.07;51.43;100121.28;7315462;19;129803;-39
2023/03/28 11:41:17;;;;;;;;;;;;;;;24.16;51.31;100144.88;7318330;19;129707;-40
2023/03/28 11:43:52;;;;;;;;;;;;;;;24.09;51.71;100137.72;7317700;19;129880;-39
2023/03/28 11:46:27;;;;;;;;;;;;;;;23.97;52.33;100138.81;7315779;19;130482;-40
2023/03/28 11:48:54;;;;;;;;;;;;;;;23.88;52.24;100137.88;7312699;19;129019;-40
2023/03/28 11:51:24;;;;;;;;;;;;;;;23.79;52.64;100143.97;7315118;19;130353;-39
2023/03/28 11:53:56;;;;;;;;;;;;;;;23.61;53.04;100126.44;7317898;19;129250;-39
2023/03/28 11:56:24;;;;;;;;;;;;;;;23.53;53.72;100126.31;7315080;19;129480;-40
2023/03/28 11:58:52;;;;;;;;;;;;;;;23.40;53.25;100139.72;7315002;19;129277;-40
2023/03/28 12:01:20;;;;;;;;;;;;;;;23.27;54.28;100133.09;7317484;19;129514;-39
2023/03/28 12:03:45;;;;;;;;;;;;;;;23.18;53.92;100134.72;7317109;19;129495;-40
2023/03/28 12:06:10;;;;;;;;;;;;;;;23.13;54.70;100129.88;7315060;19;129662;-40
2023/03/28 12:08:46;;;;;;;;;;;;;;;23.13;54.05;100127.25;7311499;19;129755;-39
2023/03/28 12:11:17;;;;;;;;;;;;;;;23.07;54.64;100108.63;7316347;19;129625;-40
2023/03/28 12:13:49;;;;;;;;;;;;;;;23.35;53.84;100131.44;7316666;19;129110;-41
2023/03/28 12:16:31;;;;;;;;;;;;;;;23.45;53.40;100121.78;7314790;19;129210;-38
2023/03/28 12:18:59;;;;;;;;;;;;;;;23.63;53.62;100120.09;7315280;19;129455;-40
2023/03/28 12:21:34;;;;;;;;;;;;;;;23.76;52.77;100125.88;7316263;19;129121;-40
2023/03/28 12:24:10;;;;;;;;;;;;;;;23.73;52.64;100109.59;7316658;19;129247;-40
2023/03/28 12:26:36;;;;;;;;;;;;;;;24.00;52.39;100120.19;7315323;19;129167;-40
2023/03/28 12:29:07;;;;;;;;;;;;;;;24.05;52.14;100126.66;7315340;19;128921;-40
2023/03/28 12:31:41;;;;;;;;;;;;;;;24.00;52.21;100107.88;7316462;19;129494;-40
2023/03/28 12:34:13;;;;;;;;;;;;;;;23.97;52.19;100108.13;7316038;19;129597;-39
2023/03/28 12:36:44;;;;;;;;;;;;;;;23.87;52.51;100114.38;7313948;19;129665;-39
2023/03/28 12:39:11;;;;;;;;;;;;;;;23.78;52.45;100112.63;7313050;19;129032;-39
2023/03/28 12:41:37;;;;;;;;;;;;;;;23.68;52.99;100104.75;7316954;19;128822;-40